createdAt,value
2018-12-29T00:00:06.888Z,7.83
2018-12-29T00:01:06.904Z,7.82
2018-12-29T00:02:06.921Z,7.8
2018-12-29T00:03:06.941Z,7.82
2018-12-29T00:04:06.953Z,7.89
2018-12-29T00:05:21.632Z,7.8
2018-12-29T00:06:06.992Z,7.85
2018-12-29T00:07:08.344Z,7.79
2018-12-29T00:08:07.019Z,7.83
2018-12-29T00:09:07.038Z,7.87
2018-12-29T00:11:07.072Z,7.89
2018-12-29T00:12:07.083Z,7.8
2018-12-29T00:14:07.126Z,7.86
2018-12-29T00:16:07.149Z,7.77
2018-12-29T00:17:21.828Z,7.71
2018-12-29T00:18:07.183Z,7.63
2018-12-29T00:19:07.199Z,7.58
2018-12-29T00:20:21.886Z,7.67
2018-12-29T00:21:07.230Z,7.61
2018-12-29T00:22:07.246Z,7.57
2018-12-29T00:23:07.266Z,7.68
2018-12-29T00:24:07.281Z,7.83
2018-12-29T00:25:07.299Z,7.8
2018-12-29T00:26:07.310Z,7.68
2018-12-29T00:27:07.327Z,7.68
2018-12-29T00:28:07.345Z,7.72
2018-12-29T00:29:07.363Z,7.77
2018-12-29T00:30:07.378Z,7.8
2018-12-29T00:31:07.394Z,7.75
2018-12-29T00:32:07.412Z,7.71
2018-12-29T00:33:07.433Z,7.64
2018-12-29T00:35:07.460Z,7.68
2018-12-29T00:36:07.476Z,7.69
2018-12-29T00:37:07.495Z,7.68
2018-12-29T00:38:07.507Z,7.64
2018-12-29T00:39:07.523Z,7.67
2018-12-29T00:40:07.543Z,7.68
2018-12-29T00:41:07.558Z,7.64
2018-12-29T00:42:07.573Z,7.72
2018-12-29T00:43:07.589Z,7.75
2018-12-29T00:44:07.609Z,7.8
2018-12-29T00:46:07.645Z,7.79
2018-12-29T00:47:07.710Z,7.82
2018-12-29T00:48:07.681Z,7.72
2018-12-29T00:49:22.354Z,7.8
2018-12-29T00:50:07.702Z,7.77
2018-12-29T00:51:22.381Z,7.79
2018-12-29T00:52:22.401Z,7.79
2018-12-29T00:53:07.753Z,7.75
2018-12-29T00:55:07.789Z,7.74
2018-12-29T00:56:07.800Z,7.87
2018-12-29T00:58:07.834Z,7.87
2018-12-29T00:59:07.860Z,7.8
2018-12-29T01:00:22.534Z,7.69
2018-12-29T01:01:07.887Z,7.86
2018-12-29T01:02:22.565Z,7.77
2018-12-29T01:03:07.919Z,7.79
2018-12-29T01:04:22.596Z,7.75
2018-12-29T01:05:07.950Z,7.83
2018-12-29T01:06:07.968Z,7.86
2018-12-29T01:07:07.983Z,7.87
2018-12-29T01:08:22.659Z,7.75
2018-12-29T01:09:08.013Z,7.75
2018-12-29T01:10:08.031Z,7.79
2018-12-29T01:11:08.047Z,7.71
2018-12-29T01:12:08.061Z,7.8
2018-12-29T01:13:08.080Z,7.82
2018-12-29T01:14:09.146Z,7.85
2018-12-29T01:16:08.164Z,7.71
2018-12-29T01:17:08.144Z,7.83
2018-12-29T01:19:08.179Z,7.86
2018-12-29T01:20:08.195Z,7.82
2018-12-29T01:21:08.278Z,7.74
2018-12-29T01:22:08.228Z,7.77
2018-12-29T01:23:08.250Z,7.79
2018-12-29T01:24:22.922Z,7.75
2018-12-29T01:25:08.279Z,7.74
2018-12-29T01:26:08.311Z,7.71
2018-12-29T01:27:08.307Z,7.79
2018-12-29T01:28:08.321Z,7.83
2018-12-29T01:29:08.341Z,7.83
2018-12-29T01:30:08.355Z,7.85
2018-12-29T01:31:08.377Z,7.82
2018-12-29T01:32:08.389Z,7.77
2018-12-29T01:33:08.409Z,7.82
2018-12-29T01:34:08.424Z,7.82
2018-12-29T01:35:08.441Z,7.82
2018-12-29T01:36:08.453Z,7.92
2018-12-29T01:37:08.471Z,7.89
2018-12-29T01:38:08.489Z,7.85
2018-12-29T01:39:08.505Z,7.75
2018-12-29T01:40:23.184Z,7.74
2018-12-29T01:41:08.539Z,7.82
2018-12-29T01:42:08.551Z,7.79
2018-12-29T01:43:08.568Z,7.87
2018-12-29T01:44:08.584Z,7.82
2018-12-29T01:45:08.607Z,7.64
2018-12-29T01:46:08.623Z,7.75
2018-12-29T01:47:08.634Z,7.79
2018-12-29T01:48:08.654Z,7.85
2018-12-29T01:49:08.666Z,7.89
2018-12-29T01:50:08.688Z,7.8
2018-12-29T01:51:08.701Z,7.85
2018-12-29T01:52:08.720Z,7.83
2018-12-29T01:53:08.487Z,7.8
2018-12-29T01:54:08.817Z,7.83
2018-12-29T01:55:23.428Z,7.82
2018-12-29T01:56:08.785Z,7.83
2018-12-29T01:57:08.797Z,7.8
2018-12-29T01:58:08.816Z,7.8
2018-12-29T01:59:08.834Z,7.83
2018-12-29T02:00:08.847Z,7.82
2018-12-29T02:01:08.862Z,7.83
2018-12-29T02:02:08.882Z,7.83
2018-12-29T02:03:08.896Z,7.82
2018-12-29T02:04:08.911Z,7.74
2018-12-29T02:06:08.948Z,7.77
2018-12-29T02:07:23.626Z,7.8
2018-12-29T02:08:08.977Z,7.89
2018-12-29T02:09:09.002Z,7.92
2018-12-29T02:10:09.010Z,7.79
2018-12-29T02:11:09.031Z,7.71
2018-12-29T02:12:23.754Z,7.8
2018-12-29T02:13:09.059Z,7.74
2018-12-29T02:14:09.079Z,7.79
2018-12-29T02:15:09.094Z,7.79
2018-12-29T02:16:09.115Z,7.82
2018-12-29T02:17:09.127Z,7.89
2018-12-29T02:18:09.151Z,7.87
2018-12-29T02:20:09.177Z,7.67
2018-12-29T02:22:09.209Z,7.82
2018-12-29T02:23:09.227Z,7.75
2018-12-29T02:24:09.241Z,7.64
2018-12-29T02:25:09.257Z,7.83
2018-12-29T02:26:09.281Z,7.69
2018-12-29T02:27:24.016Z,7.64
2018-12-29T02:29:09.326Z,7.68
2018-12-29T02:30:09.344Z,7.68
2018-12-29T02:31:09.361Z,7.63
2018-12-29T02:32:09.379Z,7.8
2018-12-29T02:33:09.390Z,7.86
2018-12-29T02:34:09.404Z,7.67
2018-12-29T02:35:09.430Z,7.8
2018-12-29T02:36:24.103Z,7.82
2018-12-29T02:37:09.454Z,7.64
2018-12-29T02:38:09.484Z,7.72
2018-12-29T02:39:09.501Z,7.63
2018-12-29T02:40:09.501Z,7.71
2018-12-29T02:41:09.607Z,7.71
2018-12-29T02:42:09.538Z,7.67
2018-12-29T02:43:24.218Z,7.58
2018-12-29T02:44:09.573Z,7.61
2018-12-29T02:45:09.583Z,7.58
2018-12-29T02:46:09.602Z,7.72
2018-12-29T02:47:09.617Z,7.63
2018-12-29T02:49:09.654Z,7.77
2018-12-29T02:50:09.669Z,7.77
2018-12-29T02:51:09.684Z,7.57
2018-12-29T02:52:09.697Z,7.69
2018-12-29T02:53:09.725Z,7.63
2018-12-29T02:54:09.751Z,7.63
2018-12-29T02:55:09.755Z,7.71
2018-12-29T02:56:24.426Z,7.67
2018-12-29T02:57:09.778Z,7.6
2018-12-29T02:58:09.811Z,7.57
2018-12-29T02:59:24.473Z,7.6
2018-12-29T03:00:09.846Z,7.63
2018-12-29T03:01:09.844Z,7.79
2018-12-29T03:02:09.905Z,7.58
2018-12-29T03:03:09.881Z,7.6
2018-12-29T03:04:09.892Z,7.57
2018-12-29T03:06:09.931Z,7.61
2018-12-29T03:08:09.963Z,7.58
2018-12-29T03:10:09.997Z,7.61
2018-12-29T03:11:10.016Z,7.58
2018-12-29T03:12:10.026Z,7.61
2018-12-29T03:13:10.040Z,7.68
2018-12-29T03:14:10.057Z,7.68
2018-12-29T03:15:24.735Z,7.57
2018-12-29T03:16:09.845Z,7.64
2018-12-29T03:17:10.103Z,7.61
2018-12-29T03:18:09.907Z,7.64
2018-12-29T03:19:10.217Z,7.6
2018-12-29T03:20:10.155Z,7.72
2018-12-29T03:21:10.168Z,7.67
2018-12-29T03:22:10.188Z,7.61
2018-12-29T03:23:10.201Z,7.69
2018-12-29T03:25:24.912Z,7.67
2018-12-29T03:26:10.261Z,7.74
2018-12-29T03:27:10.267Z,7.69
2018-12-29T03:28:10.320Z,7.67
2018-12-29T03:29:10.306Z,7.69
2018-12-29T03:30:25.001Z,7.72
2018-12-29T03:31:10.417Z,7.61
2018-12-29T03:33:10.384Z,7.74
2018-12-29T03:34:10.386Z,7.69
2018-12-29T03:35:10.413Z,7.6
2018-12-29T03:36:10.417Z,7.58
2018-12-29T03:37:10.436Z,7.6
2018-12-29T03:38:10.447Z,7.64
2018-12-29T03:39:10.482Z,7.63
2018-12-29T03:41:10.493Z,7.63
2018-12-29T03:42:10.511Z,7.61
2018-12-29T03:43:10.530Z,7.58
2018-12-29T03:45:10.573Z,7.6
2018-12-29T03:46:10.582Z,7.71
2018-12-29T03:47:10.594Z,7.6
2018-12-29T03:48:10.617Z,7.61
2018-12-29T03:49:10.632Z,7.71
2018-12-29T03:50:10.644Z,7.64
2018-12-29T03:51:10.426Z,7.63
2018-12-29T03:52:10.677Z,7.61
2018-12-29T03:53:10.690Z,7.52
2018-12-29T03:54:10.707Z,7.58
2018-12-29T03:55:10.731Z,7.68
2018-12-29T03:56:10.868Z,7.58
2018-12-29T03:57:10.759Z,7.57
2018-12-29T03:58:10.914Z,7.69
2018-12-29T03:59:10.790Z,7.63
2018-12-29T04:00:10.570Z,7.63
2018-12-29T04:01:10.827Z,7.58
2018-12-29T04:02:25.504Z,7.63
2018-12-29T04:03:10.864Z,7.63
2018-12-29T04:04:10.872Z,7.68
2018-12-29T04:05:10.956Z,7.63
2018-12-29T04:06:10.905Z,7.61
2018-12-29T04:07:10.925Z,7.69
2018-12-29T04:08:10.935Z,7.63
2018-12-29T04:09:10.952Z,7.57
2018-12-29T04:10:10.968Z,7.63
2018-12-29T04:11:11.082Z,7.63
2018-12-29T04:12:11.012Z,7.6
2018-12-29T04:13:11.031Z,7.61
2018-12-29T04:14:11.031Z,7.64
2018-12-29T04:15:11.051Z,7.61
2018-12-29T04:16:11.067Z,7.63
2018-12-29T04:17:11.084Z,7.67
2018-12-29T04:18:25.763Z,7.63
2018-12-29T04:19:11.121Z,7.64
2018-12-29T04:20:11.136Z,7.64
2018-12-29T04:22:11.161Z,7.57
2018-12-29T04:23:11.184Z,7.5
2018-12-29T04:24:11.195Z,7.52
2018-12-29T04:25:11.214Z,7.5
2018-12-29T04:26:11.240Z,7.48
2018-12-29T04:28:11.261Z,7.53
2018-12-29T04:29:11.280Z,7.5
2018-12-29T04:30:11.299Z,7.48
2018-12-29T04:31:11.314Z,7.5
2018-12-29T04:32:11.324Z,7.53
2018-12-29T04:33:11.344Z,7.49
2018-12-29T04:34:26.028Z,7.57
2018-12-29T04:35:11.372Z,7.63
2018-12-29T04:36:11.389Z,7.5
2018-12-29T04:37:11.406Z,7.69
2018-12-29T04:38:11.425Z,7.67
2018-12-29T04:39:11.436Z,7.57
2018-12-29T04:40:11.454Z,7.64
2018-12-29T04:41:11.469Z,7.68
2018-12-29T04:42:11.486Z,7.55
2018-12-29T04:43:11.502Z,7.49
2018-12-29T04:44:11.519Z,7.52
2018-12-29T04:46:26.215Z,7.57
2018-12-29T04:47:11.569Z,7.5
2018-12-29T04:48:11.586Z,7.58
2018-12-29T04:49:11.602Z,7.63
2018-12-29T04:50:26.286Z,7.52
2018-12-29T04:51:11.632Z,7.5
2018-12-29T04:52:12.697Z,7.61
2018-12-29T04:53:11.668Z,7.52
2018-12-29T04:54:11.683Z,7.6
2018-12-29T04:55:11.697Z,7.67
2018-12-29T04:56:11.714Z,7.64
2018-12-29T04:57:11.729Z,7.58
2018-12-29T04:58:11.746Z,7.58
2018-12-29T04:59:11.774Z,7.64
2018-12-29T05:00:14.811Z,7.69
2018-12-29T05:01:11.795Z,7.58
2018-12-29T05:02:11.808Z,7.57
2018-12-29T05:03:11.829Z,7.4
2018-12-29T05:04:11.845Z,7.45
2018-12-29T05:05:26.523Z,7.53
2018-12-29T05:06:11.879Z,7.5
2018-12-29T05:07:11.893Z,7.53
2018-12-29T05:08:11.907Z,7.58
2018-12-29T05:09:11.925Z,7.61
2018-12-29T05:11:11.955Z,7.63
2018-12-29T05:12:11.973Z,7.58
2018-12-29T05:13:11.989Z,7.67
2018-12-29T05:15:12.022Z,7.67
2018-12-29T05:16:17.733Z,7.58
2018-12-29T05:17:12.054Z,7.6
2018-12-29T05:18:26.733Z,7.48
2018-12-29T05:19:12.087Z,7.48
2018-12-29T05:20:12.108Z,7.49
2018-12-29T05:21:12.120Z,7.5
2018-12-29T05:22:12.139Z,7.53
2018-12-29T05:23:12.150Z,7.49
2018-12-29T05:24:12.168Z,7.53
2018-12-29T05:25:12.181Z,7.5
2018-12-29T05:26:12.202Z,7.46
2018-12-29T05:27:12.215Z,7.52
2018-12-29T05:28:12.232Z,7.5
2018-12-29T05:29:12.247Z,7.48
2018-12-29T05:30:12.018Z,7.5
2018-12-29T05:31:12.280Z,7.49
2018-12-29T05:32:12.295Z,7.5
2018-12-29T05:33:12.316Z,7.5
2018-12-29T05:34:12.330Z,7.58
2018-12-29T05:35:12.343Z,7.49
2018-12-29T05:36:12.361Z,7.52
2018-12-29T05:37:27.039Z,7.55
2018-12-29T05:38:12.395Z,7.52
2018-12-29T05:39:12.414Z,7.5
2018-12-29T05:40:12.424Z,7.57
2018-12-29T05:41:12.443Z,7.57
2018-12-29T05:42:12.459Z,7.55
2018-12-29T05:43:12.483Z,7.53
2018-12-29T05:44:12.488Z,7.45
2018-12-29T05:45:12.517Z,7.53
2018-12-29T05:46:12.523Z,7.48
2018-12-29T05:47:12.538Z,7.43
2018-12-29T05:48:12.557Z,7.43
2018-12-29T05:49:27.234Z,7.5
2018-12-29T05:50:12.592Z,7.5
2018-12-29T05:51:12.603Z,7.49
2018-12-29T05:52:12.632Z,7.49
2018-12-29T05:53:27.299Z,7.48
2018-12-29T05:54:12.652Z,7.48
2018-12-29T05:55:12.667Z,7.49
2018-12-29T05:56:12.686Z,7.48
2018-12-29T05:57:12.707Z,7.52
2018-12-29T05:58:12.725Z,7.45
2018-12-29T05:59:12.795Z,7.48
2018-12-29T06:00:12.776Z,7.5
2018-12-29T06:01:12.828Z,7.53
2018-12-29T06:02:12.780Z,7.49
2018-12-29T06:03:12.795Z,7.52
2018-12-29T06:04:12.820Z,7.5
2018-12-29T06:05:12.834Z,7.61
2018-12-29T06:06:27.508Z,7.58
2018-12-29T06:07:12.861Z,7.61
2018-12-29T06:08:12.931Z,7.58
2018-12-29T06:09:27.557Z,7.63
2018-12-29T06:10:12.909Z,7.64
2018-12-29T06:11:12.930Z,7.68
2018-12-29T06:12:12.941Z,7.53
2018-12-29T06:13:12.960Z,7.61
2018-12-29T06:14:12.974Z,7.53
2018-12-29T06:15:12.989Z,7.61
2018-12-29T06:17:13.022Z,7.75
2018-12-29T06:18:13.038Z,7.63
2018-12-29T06:19:13.057Z,7.63
2018-12-29T06:20:13.071Z,7.63
2018-12-29T06:21:13.089Z,7.55
2018-12-29T06:22:13.104Z,7.58
2018-12-29T06:23:13.119Z,7.6
2018-12-29T06:24:13.134Z,7.57
2018-12-29T06:25:27.816Z,7.45
2018-12-29T06:26:13.170Z,7.43
2018-12-29T06:27:13.183Z,7.45
2018-12-29T06:28:13.215Z,7.5
2018-12-29T06:29:13.218Z,7.53
2018-12-29T06:30:13.234Z,7.6
2018-12-29T06:31:13.250Z,7.52
2018-12-29T06:32:13.272Z,7.5
2018-12-29T06:33:13.281Z,7.52
2018-12-29T06:34:13.299Z,7.49
2018-12-29T06:35:13.390Z,7.48
2018-12-29T06:37:28.009Z,7.5
2018-12-29T06:38:28.024Z,7.52
2018-12-29T06:39:13.377Z,7.35
2018-12-29T06:40:28.058Z,7.39
2018-12-29T06:41:13.413Z,7.45
2018-12-29T06:42:13.428Z,7.32
2018-12-29T06:43:13.441Z,7.32
2018-12-29T06:44:13.459Z,7.48
2018-12-29T06:46:13.494Z,7.43
2018-12-29T06:47:13.508Z,7.49
2018-12-29T06:49:13.541Z,7.5
2018-12-29T06:50:13.556Z,7.37
2018-12-29T06:51:13.571Z,7.45
2018-12-29T06:52:28.252Z,7.39
2018-12-29T06:53:13.609Z,7.5
2018-12-29T06:54:13.622Z,7.48
2018-12-29T06:55:13.636Z,7.52
2018-12-29T06:56:13.656Z,7.57
2018-12-29T06:57:13.668Z,7.52
2018-12-29T06:58:13.686Z,7.5
2018-12-29T06:59:13.704Z,7.5
2018-12-29T07:00:13.714Z,7.39
2018-12-29T07:01:13.730Z,7.48
2018-12-29T07:02:13.746Z,7.42
2018-12-29T07:04:13.779Z,7.32
2018-12-29T07:05:13.798Z,7.3
2018-12-29T07:06:13.812Z,7.3
2018-12-29T07:08:13.860Z,7.4
2018-12-29T07:09:13.865Z,7.37
2018-12-29T07:10:13.875Z,7.37
2018-12-29T07:11:13.894Z,7.37
2018-12-29T07:12:28.572Z,7.43
2018-12-29T07:13:13.930Z,7.37
2018-12-29T07:14:13.941Z,7.34
2018-12-29T07:15:13.957Z,7.37
2018-12-29T07:16:13.975Z,7.52
2018-12-29T07:17:13.993Z,7.5
2018-12-29T07:18:14.011Z,7.46
2018-12-29T07:19:14.027Z,7.45
2018-12-29T07:20:14.035Z,7.49
2018-12-29T07:22:14.070Z,7.5
2018-12-29T07:23:14.084Z,7.55
2018-12-29T07:24:14.104Z,7.52
2018-12-29T07:25:28.780Z,7.52
2018-12-29T07:26:14.133Z,7.5
2018-12-29T07:27:14.152Z,7.55
2018-12-29T07:28:28.828Z,7.55
2018-12-29T07:29:14.186Z,7.57
2018-12-29T07:30:14.196Z,7.64
2018-12-29T07:31:14.213Z,7.64
2018-12-29T07:32:14.236Z,7.67
2018-12-29T07:33:14.248Z,7.61
2018-12-29T07:34:14.261Z,7.6
2018-12-29T07:35:28.947Z,7.67
2018-12-29T07:36:14.298Z,7.63
2018-12-29T07:37:14.314Z,7.61
2018-12-29T07:38:14.334Z,7.6
2018-12-29T07:39:14.346Z,7.58
2018-12-29T07:40:29.022Z,7.63
2018-12-29T07:41:14.377Z,7.58
2018-12-29T07:42:14.391Z,7.63
2018-12-29T07:43:14.410Z,7.55
2018-12-29T07:44:29.085Z,7.6
2018-12-29T07:45:14.440Z,7.58
2018-12-29T07:46:14.458Z,7.6
2018-12-29T07:47:14.538Z,7.55
2018-12-29T07:48:15.845Z,7.46
2018-12-29T07:49:14.510Z,7.52
2018-12-29T07:51:14.540Z,7.63
2018-12-29T07:52:14.551Z,7.58
2018-12-29T07:54:29.251Z,7.67
2018-12-29T07:55:29.266Z,7.67
2018-12-29T07:56:14.617Z,7.53
2018-12-29T07:57:14.637Z,7.68
2018-12-29T07:58:14.650Z,7.69
2018-12-29T07:59:14.664Z,7.52
2018-12-29T08:00:29.346Z,7.49
2018-12-29T08:01:14.700Z,7.52
2018-12-29T08:02:14.712Z,7.55
2018-12-29T08:03:14.728Z,7.5
2018-12-29T08:04:14.753Z,7.58
2018-12-29T08:05:14.764Z,7.55
2018-12-29T08:06:14.777Z,7.46
2018-12-29T08:07:14.801Z,7.5
2018-12-29T08:08:14.809Z,7.48
2018-12-29T08:09:14.827Z,7.52
2018-12-29T08:10:14.843Z,7.57
2018-12-29T08:11:14.857Z,7.49
2018-12-29T08:12:14.877Z,7.52
2018-12-29T08:13:29.554Z,7.46
2018-12-29T08:14:14.910Z,7.55
2018-12-29T08:15:29.586Z,7.6
2018-12-29T08:17:14.960Z,7.43
2018-12-29T08:18:14.974Z,7.43
2018-12-29T08:19:14.988Z,7.5
2018-12-29T08:20:15.004Z,7.5
2018-12-29T08:21:15.023Z,7.39
2018-12-29T08:22:15.037Z,7.55
2018-12-29T08:23:29.721Z,7.52
2018-12-29T08:24:15.074Z,7.53
2018-12-29T08:25:15.089Z,7.6
2018-12-29T08:26:15.101Z,7.5
2018-12-29T08:27:15.119Z,7.5
2018-12-29T08:28:14.904Z,7.55
2018-12-29T08:29:15.151Z,7.5
2018-12-29T08:30:15.167Z,7.45
2018-12-29T08:31:15.190Z,7.43
2018-12-29T08:32:15.198Z,7.4
2018-12-29T08:33:15.214Z,7.45
2018-12-29T08:34:15.233Z,7.49
2018-12-29T08:35:15.254Z,7.48
2018-12-29T08:36:15.266Z,7.37
2018-12-29T08:37:15.279Z,7.45
2018-12-29T08:38:15.298Z,7.45
2018-12-29T08:39:15.311Z,7.5
2018-12-29T08:41:15.341Z,7.46
2018-12-29T08:42:15.363Z,7.46
2018-12-29T08:43:15.374Z,7.43
2018-12-29T08:44:30.054Z,7.42
2018-12-29T08:45:15.412Z,7.52
2018-12-29T08:46:15.422Z,7.52
2018-12-29T08:47:30.104Z,7.46
2018-12-29T08:48:15.454Z,7.45
2018-12-29T08:49:15.473Z,7.48
2018-12-29T08:50:18.188Z,7.52
2018-12-29T08:51:15.557Z,7.45
2018-12-29T08:52:15.522Z,7.5
2018-12-29T08:53:15.537Z,7.48
2018-12-29T08:54:30.221Z,7.45
2018-12-29T08:55:15.568Z,7.53
2018-12-29T08:56:15.585Z,7.52
2018-12-29T08:57:15.608Z,7.46
2018-12-29T08:58:15.617Z,7.45
2018-12-29T08:59:15.639Z,7.48
2018-12-29T09:00:15.651Z,7.53
2018-12-29T09:01:15.670Z,7.49
2018-12-29T09:02:15.686Z,7.45
2018-12-29T09:03:30.362Z,7.5
2018-12-29T09:04:15.715Z,7.53
2018-12-29T09:05:15.730Z,7.48
2018-12-29T09:06:15.749Z,7.43
2018-12-29T09:07:15.762Z,7.53
2018-12-29T09:08:15.781Z,7.53
2018-12-29T09:09:15.793Z,7.49
2018-12-29T09:10:15.814Z,7.43
2018-12-29T09:11:15.829Z,7.48
2018-12-29T09:12:15.847Z,7.48
2018-12-29T09:13:15.860Z,7.5
2018-12-29T09:15:30.605Z,7.6
2018-12-29T09:16:30.570Z,7.52
2018-12-29T09:17:17.172Z,7.49
2018-12-29T09:18:15.941Z,7.46
2018-12-29T09:19:30.617Z,7.57
2018-12-29T09:20:15.970Z,7.6
2018-12-29T09:21:15.992Z,7.55
2018-12-29T09:23:16.023Z,7.55
2018-12-29T09:24:16.042Z,7.61
2018-12-29T09:25:16.051Z,7.58
2018-12-29T09:26:16.091Z,7.63
2018-12-29T09:27:16.096Z,7.6
2018-12-29T09:28:16.106Z,7.6
2018-12-29T09:29:16.220Z,7.58
2018-12-29T09:30:16.133Z,7.6
2018-12-29T09:31:16.151Z,7.64
2018-12-29T09:32:30.828Z,7.58
2018-12-29T09:33:16.182Z,7.63
2018-12-29T09:34:22.342Z,7.58
2018-12-29T09:36:16.231Z,7.68
2018-12-29T09:37:16.265Z,7.67
2018-12-29T09:38:16.261Z,7.67
2018-12-29T09:39:16.283Z,7.72
2018-12-29T09:40:30.965Z,7.64
2018-12-29T09:41:16.309Z,7.74
2018-12-29T09:42:16.080Z,7.63
2018-12-29T09:43:16.402Z,7.71
2018-12-29T09:44:31.126Z,7.69
2018-12-29T09:45:16.378Z,7.72
2018-12-29T09:46:16.491Z,7.79
2018-12-29T09:47:31.072Z,7.85
2018-12-29T09:48:16.425Z,7.92
2018-12-29T09:49:16.442Z,7.86
2018-12-29T09:50:31.172Z,7.86
2018-12-29T09:51:31.150Z,7.86
2018-12-29T09:52:16.495Z,7.85
2018-12-29T09:53:16.510Z,7.75
2018-12-29T09:54:16.524Z,7.69
2018-12-29T09:56:16.606Z,7.71
2018-12-29T09:58:16.588Z,7.58
2018-12-29T09:59:16.607Z,7.6
2018-12-29T10:00:16.623Z,7.6
2018-12-29T10:01:31.302Z,7.61
2018-12-29T10:02:16.653Z,7.71
2018-12-29T10:03:31.333Z,7.79
2018-12-29T10:04:16.688Z,7.77
2018-12-29T10:05:16.703Z,7.72
2018-12-29T10:06:16.718Z,7.72
2018-12-29T10:07:16.737Z,7.82
2018-12-29T10:08:16.750Z,7.79
2018-12-29T10:09:16.769Z,7.8
2018-12-29T10:10:16.783Z,7.72
2018-12-29T10:11:16.800Z,7.77
2018-12-29T10:12:16.818Z,7.67
2018-12-29T10:14:16.618Z,7.79
2018-12-29T10:15:16.865Z,7.74
2018-12-29T10:16:16.894Z,7.79
2018-12-29T10:17:16.897Z,7.79
2018-12-29T10:18:16.917Z,7.86
2018-12-29T10:19:16.934Z,7.87
2018-12-29T10:20:16.947Z,7.85
2018-12-29T10:21:16.971Z,7.87
2018-12-29T10:22:31.643Z,7.87
2018-12-29T10:23:16.997Z,8.01
2018-12-29T10:24:17.018Z,7.92
2018-12-29T10:25:17.031Z,7.83
2018-12-29T10:26:17.087Z,7.77
2018-12-29T10:27:17.061Z,7.83
2018-12-29T10:28:17.626Z,7.82
2018-12-29T10:29:17.139Z,7.82
2018-12-29T10:30:17.111Z,7.89
2018-12-29T10:31:17.153Z,7.77
2018-12-29T10:32:17.151Z,7.72
2018-12-29T10:33:17.159Z,7.64
2018-12-29T10:34:31.839Z,7.79
2018-12-29T10:35:31.855Z,7.83
2018-12-29T10:36:17.227Z,7.82
2018-12-29T10:37:17.224Z,7.83
2018-12-29T10:38:31.907Z,8.01
2018-12-29T10:39:17.257Z,8.05
2018-12-29T10:41:17.291Z,7.98
2018-12-29T10:42:17.309Z,8.08
2018-12-29T10:43:17.393Z,8.05
2018-12-29T10:44:17.338Z,7.98
2018-12-29T10:46:17.378Z,7.92
2018-12-29T10:47:17.388Z,7.95
2018-12-29T10:49:17.420Z,7.93
2018-12-29T10:50:32.102Z,7.93
2018-12-29T10:51:17.452Z,8.02
2018-12-29T10:52:17.471Z,8.1
2018-12-29T10:53:17.486Z,8
2018-12-29T10:54:32.166Z,7.97
2018-12-29T10:55:17.519Z,7.95
2018-12-29T10:56:17.637Z,8.02
2018-12-29T10:57:17.553Z,8.05
2018-12-29T10:58:17.573Z,7.97
2018-12-29T10:59:17.588Z,7.85
2018-12-29T11:00:17.610Z,7.83
2018-12-29T11:01:17.622Z,8
2018-12-29T11:02:17.702Z,7.83
2018-12-29T11:03:17.658Z,8
2018-12-29T11:04:18.015Z,7.87
2018-12-29T11:05:17.686Z,7.89
2018-12-29T11:06:17.706Z,7.93
2018-12-29T11:07:32.380Z,7.89
2018-12-29T11:08:17.733Z,7.98
2018-12-29T11:09:17.751Z,7.83
2018-12-29T11:10:32.433Z,7.85
2018-12-29T11:11:17.784Z,7.86
2018-12-29T11:12:17.800Z,7.82
2018-12-29T11:13:17.817Z,7.86
2018-12-29T11:14:17.841Z,7.83
2018-12-29T11:15:19.061Z,7.85
2018-12-29T11:16:17.867Z,7.86
2018-12-29T11:17:17.637Z,7.85
2018-12-29T11:18:17.906Z,7.67
2018-12-29T11:19:17.919Z,7.72
2018-12-29T11:20:17.930Z,7.72
2018-12-29T11:21:32.612Z,7.83
2018-12-29T11:22:32.628Z,7.86
2018-12-29T11:23:17.984Z,7.86
2018-12-29T11:24:17.999Z,7.93
2018-12-29T11:25:32.676Z,7.89
2018-12-29T11:26:18.030Z,7.97
2018-12-29T11:27:18.047Z,7.83
2018-12-29T11:29:18.081Z,8.01
2018-12-29T11:30:18.112Z,7.83
2018-12-29T11:31:18.117Z,7.83
2018-12-29T11:32:18.128Z,8
2018-12-29T11:33:18.254Z,7.98
2018-12-29T11:34:18.160Z,8.04
2018-12-29T11:35:18.181Z,8.02
2018-12-29T11:36:18.194Z,7.9
2018-12-29T11:37:18.213Z,8.02
2018-12-29T11:38:18.227Z,7.98
2018-12-29T11:39:18.254Z,8.02
2018-12-29T11:40:18.258Z,8
2018-12-29T11:41:18.278Z,7.93
2018-12-29T11:42:18.292Z,7.93
2018-12-29T11:44:18.338Z,8.01
2018-12-29T11:45:18.342Z,8.02
2018-12-29T11:46:18.359Z,8.04
2018-12-29T11:47:18.477Z,8.01
2018-12-29T11:48:18.416Z,8.15
2018-12-29T11:49:37.540Z,8.05
2018-12-29T11:51:18.475Z,8.16
2018-12-29T11:52:18.480Z,8.29
2018-12-29T11:53:18.765Z,8.33
2018-12-29T11:54:18.500Z,8.33
2018-12-29T11:55:18.528Z,8.44
2018-12-29T11:56:18.539Z,8.38
2018-12-29T11:57:33.217Z,8.36
2018-12-29T11:58:18.571Z,8.3
2018-12-29T11:59:18.609Z,8.37
2018-12-29T12:00:18.608Z,8.5
2018-12-29T12:01:19.641Z,8.43
2018-12-29T12:02:24.512Z,8.53
2018-12-29T12:03:33.310Z,8.4
2018-12-29T12:04:18.674Z,8.44
2018-12-29T12:05:18.445Z,8.41
2018-12-29T12:06:18.711Z,8.45
2018-12-29T12:07:18.736Z,8.4
2018-12-29T12:08:18.744Z,8.43
2018-12-29T12:09:18.768Z,8.41
2018-12-29T12:10:18.777Z,8.41
2018-12-29T12:11:19.390Z,8.43
2018-12-29T12:12:18.815Z,8.36
2018-12-29T12:14:18.853Z,8.4
2018-12-29T12:15:18.881Z,8.41
2018-12-29T12:16:18.890Z,8.48
2018-12-29T12:17:18.932Z,8.41
2018-12-29T12:18:19.049Z,8.44
2018-12-29T12:20:19.469Z,8.41
2018-12-29T12:21:18.956Z,8.58
2018-12-29T12:22:18.972Z,8.55
2018-12-29T12:23:19.005Z,8.52
2018-12-29T12:24:33.674Z,8.48
2018-12-29T12:25:19.587Z,8.55
2018-12-29T12:26:19.187Z,8.58
2018-12-29T12:27:19.545Z,8.63
2018-12-29T12:28:19.115Z,8.56
2018-12-29T12:29:33.750Z,8.52
2018-12-29T12:30:19.139Z,8.58
2018-12-29T12:31:33.785Z,8.53
2018-12-29T12:32:18.906Z,8.59
2018-12-29T12:33:19.180Z,8.59
2018-12-29T12:34:19.587Z,8.45
2018-12-29T12:35:19.223Z,8.48
2018-12-29T12:36:19.253Z,8.5
2018-12-29T12:37:19.840Z,8.37
2018-12-29T12:38:19.255Z,8.38
2018-12-29T12:39:19.285Z,8.41
2018-12-29T12:40:19.310Z,8.23
2018-12-29T12:41:19.313Z,8.34
2018-12-29T12:42:19.329Z,8.37
2018-12-29T12:43:19.942Z,8.4
2018-12-29T12:44:19.731Z,8.41
2018-12-29T12:45:34.021Z,8.4
2018-12-29T12:47:34.073Z,8.37
2018-12-29T12:48:19.815Z,8.44
2018-12-29T12:49:19.473Z,8.43
2018-12-29T12:50:19.522Z,8.3
2018-12-29T12:51:19.473Z,8.28
2018-12-29T12:52:19.485Z,8.37
2018-12-29T12:53:20.078Z,8.4
2018-12-29T12:54:19.522Z,8.28
2018-12-29T12:55:19.546Z,8.28
2018-12-29T12:56:19.548Z,8.23
2018-12-29T12:57:20.248Z,8.22
2018-12-29T12:59:19.894Z,8.26
2018-12-29T13:00:34.587Z,8.19
2018-12-29T13:01:19.630Z,8.29
2018-12-29T13:02:19.755Z,8.2
2018-12-29T13:03:19.668Z,8.16
2018-12-29T13:04:19.687Z,8.2
2018-12-29T13:05:34.354Z,8.22
2018-12-29T13:06:19.727Z,8.1
2018-12-29T13:07:19.737Z,8.2
2018-12-29T13:08:19.752Z,8.25
2018-12-29T13:09:19.771Z,8.05
2018-12-29T13:10:19.793Z,8.1
2018-12-29T13:11:20.029Z,8.01
2018-12-29T13:12:19.818Z,8.07
2018-12-29T13:14:19.848Z,8.2
2018-12-29T13:15:19.864Z,8.22
2018-12-29T13:16:19.893Z,8.22
2018-12-29T13:17:20.020Z,8.18
2018-12-29T13:18:19.913Z,8.29
2018-12-29T13:19:19.930Z,8.26
2018-12-29T13:21:19.973Z,8.16
2018-12-29T13:22:19.978Z,8.26
2018-12-29T13:23:20.023Z,8.23
2018-12-29T13:24:20.016Z,8.22
2018-12-29T13:25:20.028Z,8.11
2018-12-29T13:26:20.058Z,8.08
2018-12-29T13:27:20.077Z,8.11
2018-12-29T13:28:20.079Z,8.04
2018-12-29T13:29:20.303Z,8.16
2018-12-29T13:30:20.119Z,8.08
2018-12-29T13:31:20.141Z,8.26
2018-12-29T13:32:34.815Z,8.28
2018-12-29T13:33:20.179Z,8.2
2018-12-29T13:34:20.191Z,8.2
2018-12-29T13:35:20.193Z,8.33
2018-12-29T13:36:20.211Z,8.33
2018-12-29T13:37:20.235Z,8.34
2018-12-29T13:39:20.267Z,8.33
2018-12-29T13:40:20.294Z,8.4
2018-12-29T13:41:20.309Z,8.43
2018-12-29T13:42:20.319Z,8.41
2018-12-29T13:43:20.333Z,8.44
2018-12-29T13:44:20.447Z,8.29
2018-12-29T13:45:20.384Z,8.45
2018-12-29T13:46:20.380Z,8.44
2018-12-29T13:47:35.295Z,8.36
2018-12-29T13:48:35.117Z,8.43
2018-12-29T13:49:20.579Z,8.34
2018-12-29T13:51:20.461Z,8.44
2018-12-29T13:53:20.492Z,8.4
2018-12-29T13:54:20.518Z,8.23
2018-12-29T13:55:20.551Z,8.26
2018-12-29T13:56:20.694Z,8.41
2018-12-29T13:57:20.564Z,8.33
2018-12-29T13:59:20.601Z,8.37
2018-12-29T14:00:20.621Z,8.3
2018-12-29T14:01:20.635Z,8.23
2018-12-29T14:02:20.653Z,8.34
2018-12-29T14:03:20.669Z,8.22
2018-12-29T14:04:35.334Z,8.34
2018-12-29T14:05:20.699Z,8.3
2018-12-29T14:06:35.369Z,8.23
2018-12-29T14:07:20.732Z,8.22
2018-12-29T14:08:20.743Z,8.3
2018-12-29T14:09:35.416Z,8.3
2018-12-29T14:10:20.779Z,8.34
2018-12-29T14:11:20.794Z,8.36
2018-12-29T14:12:20.808Z,8.3
2018-12-29T14:13:20.840Z,8.3
2018-12-29T14:14:35.510Z,8.33
2018-12-29T14:15:35.861Z,8.36
2018-12-29T14:16:20.890Z,8.34
2018-12-29T14:17:20.895Z,8.37
2018-12-29T14:18:27.974Z,8.33
2018-12-29T14:19:20.932Z,8.41
2018-12-29T14:20:35.598Z,8.44
2018-12-29T14:21:20.962Z,8.3